Time;durP1;ratioP1;P1;durP2;ratioP2;P2;SDS_P1;SDS_P2;PMS_P1;PMS_P2;Temp;Humidity;BMP_temperature;BMP_pressure;BME280_temperature;BME280_humidity;BME280_pressure;Samples;Min_cycle;Max_cycle;Signal;HPM_P1;HPM_P2
2022/03/16 00:00:22;;;;;;;70.93;53.83;;;5.30;99.90;;;;;;4959739;28;90939;-33
2022/03/16 00:02:49;;;;;;;78.38;54.67;;;5.30;99.90;;;;;;4959972;28;89053;-34
2022/03/16 00:05:16;;;;;;;82.72;55.35;;;5.20;99.90;;;;;;4959707;28;89577;-31
2022/03/16 00:07:42;;;;;;;72.63;54.88;;;5.20;99.90;;;;;;4959746;28;90096;-32
2022/03/16 00:10:09;;;;;;;67.53;50.97;;;5.20;99.90;;;;;;4959517;28;90312;-35
2022/03/16 00:12:39;;;;;;;71.97;52.50;;;5.10;99.90;;;;;;4998791;23;90616;-32
2022/03/16 00:15:05;;;;;;;67.55;51.03;;;5.10;99.90;;;;;;4940208;28;91273;-35
2022/03/16 00:17:32;;;;;;;72.15;51.03;;;5.00;99.90;;;;;;4940431;28;90008;-33
2022/03/16 00:19:58;;;;;;;52.42;46.33;;;4.90;99.90;;;;;;4940420;28;89387;-30
2022/03/16 00:22:23;;;;;;;74.72;52.80;;;4.90;99.90;;;;;;4940493;28;89454;-33
2022/03/16 00:24:49;;;;;;;68.22;52.15;;;4.80;99.90;;;;;;4939511;28;89539;-31
2022/03/16 00:27:14;;;;;;;73.78;52.33;;;4.80;99.90;;;;;;4940768;28;89428;-31
2022/03/16 00:29:40;;;;;;;74.75;56.17;;;4.80;99.90;;;;;;4940074;28;89901;-32
2022/03/16 00:32:06;;;;;;;77.07;56.20;;;4.80;99.90;;;;;;4940774;28;89300;-34
2022/03/16 00:34:32;;;;;;;72.50;52.90;;;4.90;99.90;;;;;;4939429;28;89718;-33
2022/03/16 00:36:58;;;;;;;67.43;51.70;;;4.90;99.90;;;;;;4939575;28;90312;-37
2022/03/16 00:39:23;;;;;;;75.88;55.20;;;4.90;99.90;;;;;;4940386;28;89885;-34
2022/03/16 00:41:49;;;;;;;72.00;53.30;;;4.90;99.90;;;;;;4939569;28;90312;-34
2022/03/16 00:44:15;;;;;;;67.47;50.67;;;4.90;99.90;;;;;;4940301;28;89594;-33
2022/03/16 00:46:41;;;;;;;72.93;53.22;;;4.90;99.90;;;;;;4939299;28;88805;-33
2022/03/16 00:49:06;;;;;;;73.90;56.20;;;4.80;99.90;;;;;;4939668;28;90328;-30
2022/03/16 00:51:32;;;;;;;68.05;52.40;;;4.80;99.90;;;;;;4940340;28;89598;-31
2022/03/16 00:53:58;;;;;;;79.30;53.63;;;4.90;99.90;;;;;;4939493;28;89930;-31
2022/03/16 00:56:23;;;;;;;65.13;49.97;;;4.80;99.90;;;;;;4940080;28;88094;-34
2022/03/16 00:58:49;;;;;;;73.45;49.67;;;4.70;99.90;;;;;;4939011;28;90534;-32
2022/03/16 01:01:14;;;;;;;68.20;48.45;;;4.70;99.90;;;;;;4939295;28;90589;-31
2022/03/16 01:03:41;;;;;;;62.63;44.45;;;4.70;99.90;;;;;;4939405;28;90459;-32
2022/03/16 01:06:15;;;;;;;63.58;45.47;;;4.70;99.90;;;;;;4937670;28;89156;-31
2022/03/16 01:08:42;;;;;;;64.43;47.88;;;4.60;99.90;;;;;;4939745;28;91022;-32
2022/03/16 01:11:07;;;;;;;64.13;47.00;;;4.60;99.90;;;;;;4939459;28;89673;-35
2022/03/16 01:13:33;;;;;;;73.28;50.72;;;4.60;99.90;;;;;;4939399;28;89556;-31
2022/03/16 01:15:59;;;;;;;66.22;48.33;;;4.70;99.90;;;;;;4939025;28;89486;-32
2022/03/16 01:18:25;;;;;;;68.03;49.90;;;4.70;99.90;;;;;;4939955;28;90605;-36
2022/03/16 01:20:50;;;;;;;63.53;51.33;;;4.70;99.90;;;;;;4941385;28;88484;-32
2022/03/16 01:23:16;;;;;;;72.63;53.03;;;4.70;99.90;;;;;;4942742;28;89911;-33
2022/03/16 01:25:41;;;;;;;73.05;52.53;;;4.70;99.90;;;;;;4942578;28;90115;-30
2022/03/16 01:28:07;;;;;;;72.55;53.80;;;4.80;99.90;;;;;;4942941;28;89076;-32
2022/03/16 01:30:32;;;;;;;73.28;51.50;;;4.70;99.90;;;;;;4943279;28;89113;-38
2022/03/16 01:32:58;;;;;;;71.97;53.67;;;4.70;99.90;;;;;;4942919;28;90421;-31
2022/03/16 01:35:24;;;;;;;81.85;55.22;;;4.80;99.90;;;;;;4942251;28;90316;-36
2022/03/16 01:37:49;;;;;;;69.95;52.05;;;4.80;99.90;;;;;;4942853;28;88724;-33
2022/03/16 01:40:15;;;;;;;75.57;55.50;;;4.80;99.90;;;;;;4942114;28;89499;-30
2022/03/16 01:42:41;;;;;;;75.28;55.55;;;4.80;99.90;;;;;;4942977;28;89912;-32
2022/03/16 01:45:07;;;;;;;73.97;56.10;;;4.80;99.90;;;;;;4943042;28;88311;-35
2022/03/16 01:47:33;;;;;;;71.63;56.70;;;4.80;99.90;;;;;;4942093;28;91904;-32
2022/03/16 01:49:58;;;;;;;73.60;53.88;;;4.80;99.90;;;;;;4942319;28;90720;-31
2022/03/16 01:52:26;;;;;;;76.70;53.47;;;4.80;99.90;;;;;;4941867;28;90503;-31
2022/03/16 01:54:53;;;;;;;72.10;57.80;;;4.70;99.90;;;;;;4942036;28;89845;-31
2022/03/16 01:57:20;;;;;;;71.75;53.42;;;4.80;99.90;;;;;;4942736;28;89932;-33
2022/03/16 01:59:46;;;;;;;87.28;58.92;;;4.80;99.90;;;;;;4942268;28;89741;-31
2022/03/16 02:02:12;;;;;;;76.25;55.15;;;4.80;99.90;;;;;;4941958;28;89422;-33
2022/03/16 02:04:39;;;;;;;74.80;55.75;;;4.80;99.90;;;;;;4942392;28;89047;-31
2022/03/16 02:07:05;;;;;;;77.72;58.40;;;4.80;99.90;;;;;;4942660;28;91029;-34
2022/03/16 02:09:31;;;;;;;84.88;59.15;;;4.80;99.90;;;;;;4942281;28;89333;-33
2022/03/16 02:11:56;;;;;;;87.47;57.53;;;4.70;99.90;;;;;;4941691;28;89748;-33
2022/03/16 02:14:22;;;;;;;75.78;56.45;;;4.70;99.90;;;;;;4941559;28;88612;-33
2022/03/16 02:16:48;;;;;;;74.70;54.63;;;4.70;99.90;;;;;;4942298;28;90206;-30
2022/03/16 02:19:15;;;;;;;79.43;56.35;;;4.70;99.90;;;;;;4941978;28;89534;-33
2022/03/16 02:21:43;;;;;;;75.38;55.10;;;4.70;99.90;;;;;;4941815;28;90074;-33
2022/03/16 02:24:09;;;;;;;67.95;51.20;;;4.70;99.90;;;;;;4940628;28;87971;-33
2022/03/16 02:26:34;;;;;;;80.65;53.85;;;4.60;99.90;;;;;;4941686;28;90487;-37
2022/03/16 02:29:00;;;;;;;67.95;50.97;;;4.50;99.90;;;;;;4941911;28;89112;-32
2022/03/16 02:31:26;;;;;;;547.95;87.28;;;4.40;99.90;;;;;;4942133;28;89479;-32
2022/03/16 02:33:52;;;;;;;496.90;70.97;;;4.40;99.90;;;;;;4941670;28;89374;-31
2022/03/16 02:36:19;;;;;;;329.63;57.70;;;4.20;99.90;;;;;;4941672;28;90276;-32
2022/03/16 02:38:45;;;;;;;239.40;51.10;;;4.00;99.90;;;;;;4940585;28;90969;-31
2022/03/16 02:41:10;;;;;;;457.95;60.05;;;3.80;99.90;;;;;;4941249;28;90557;-31
2022/03/16 02:43:36;;;;;;;229.70;41.92;;;3.70;99.90;;;;;;4941995;28;88118;-33
2022/03/16 02:46:03;;;;;;;368.55;56.20;;;3.60;99.90;;;;;;4941742;28;90925;-30
2022/03/16 02:48:28;;;;;;;223.57;41.85;;;3.60;99.90;;;;;;4942036;28;89573;-32
2022/03/16 02:50:54;;;;;;;125.13;44.40;;;3.50;99.90;;;;;;4941826;28;89260;-31
2022/03/16 02:53:20;;;;;;;59.40;45.13;;;3.40;99.90;;;;;;4941111;28;87505;-34
2022/03/16 02:55:47;;;;;;;58.47;43.70;;;3.40;99.90;;;;;;4942137;28;89722;-34
2022/03/16 02:58:13;;;;;;;54.33;41.78;;;3.30;99.90;;;;;;4941456;28;91234;-31
2022/03/16 03:00:40;;;;;;;77.50;48.83;;;3.30;99.90;;;;;;4940500;28;89541;-32
2022/03/16 03:03:06;;;;;;;58.28;45.42;;;3.30;99.90;;;;;;4941921;28;90210;-34
2022/03/16 03:05:31;;;;;;;121.65;49.10;;;3.40;99.90;;;;;;4940647;28;90066;-34
2022/03/16 03:07:57;;;;;;;361.73;49.33;;;3.40;99.90;;;;;;4941636;28;89756;-35
2022/03/16 03:10:22;;;;;;;387.17;58.75;;;3.40;99.90;;;;;;4941568;28;89500;-33
2022/03/16 03:12:48;;;;;;;226.20;48.63;;;3.30;99.90;;;;;;4940046;28;88085;-33
2022/03/16 03:15:15;;;;;;;231.15;50.55;;;3.30;99.90;;;;;;4942195;28;90173;-31
2022/03/16 03:17:42;;;;;;;174.43;42.70;;;3.20;99.90;;;;;;4940778;28;89789;-32
2022/03/16 03:20:09;;;;;;;110.88;39.67;;;3.20;99.90;;;;;;4941110;28;89578;-34
2022/03/16 03:22:35;;;;;;;181.10;45.47;;;3.10;99.90;;;;;;4941415;28;89075;-35
2022/03/16 03:25:02;;;;;;;51.60;38.00;;;3.10;99.90;;;;;;4940942;28;89922;-31
2022/03/16 03:27:27;;;;;;;222.50;51.88;;;3.10;99.90;;;;;;4940232;28;91278;-33
2022/03/16 03:29:53;;;;;;;60.92;37.88;;;3.20;99.90;;;;;;4940924;28;90927;-34
2022/03/16 03:32:19;;;;;;;73.43;33.13;;;3.30;99.90;;;;;;4941537;28;87737;-34
2022/03/16 03:34:47;;;;;;;117.93;34.97;;;3.30;99.90;;;;;;4941166;28;90452;-32
2022/03/16 03:37:14;;;;;;;;;;;3.40;99.90;;;;;;4941414;28;90787;-33
2022/03/16 03:39:40;;;;;;;102.47;38.50;;;3.40;99.90;;;;;;4942248;28;89146;-34
2022/03/16 03:42:06;;;;;;;81.85;37.78;;;3.40;99.90;;;;;;4940665;28;88295;-34
2022/03/16 03:44:32;;;;;;;135.30;42.22;;;3.50;99.90;;;;;;4940569;28;90089;-35
2022/03/16 03:46:57;;;;;;;106.78;41.70;;;3.50;99.90;;;;;;4938936;28;91359;-34
2022/03/16 03:49:23;;;;;;;138.48;39.30;;;3.50;99.90;;;;;;4941040;28;89456;-32
2022/03/16 03:51:48;;;;;;;171.02;47.10;;;3.60;99.90;;;;;;4939918;28;90409;-33
2022/03/16 03:54:14;;;;;;;86.00;34.97;;;3.60;99.90;;;;;;4940914;28;90616;-34
2022/03/16 03:56:40;;;;;;;220.43;53.63;;;3.50;99.90;;;;;;4940636;28;90983;-32
2022/03/16 03:59:05;;;;;;;144.68;39.83;;;3.50;99.90;;;;;;4940220;28;89603;-32
2022/03/16 04:01:31;;;;;;;112.70;35.42;;;3.40;99.90;;;;;;4940916;28;89571;-31
2022/03/16 04:03:56;;;;;;;164.95;39.92;;;3.30;99.90;;;;;;4940132;28;90140;-32
2022/03/16 04:06:22;;;;;;;72.03;32.38;;;3.20;99.90;;;;;;4940814;28;89843;-34
2022/03/16 04:08:48;;;;;;;49.05;28.20;;;3.20;99.90;;;;;;4940405;28;89890;-33
2022/03/16 04:11:13;;;;;;;40.75;28.30;;;3.10;99.90;;;;;;4940584;28;88943;-34
2022/03/16 04:13:39;;;;;;;37.22;28.50;;;3.10;99.90;;;;;;4939514;28;89222;-32
2022/03/16 04:16:05;;;;;;;40.88;31.27;;;3.10;99.90;;;;;;4939654;28;90567;-33
2022/03/16 04:18:30;;;;;;;51.60;30.88;;;3.10;99.90;;;;;;4940712;28;90455;-34
2022/03/16 04:20:56;;;;;;;66.70;30.42;;;3.10;99.90;;;;;;4939736;28;89036;-32
2022/03/16 04:23:22;;;;;;;113.57;39.92;;;3.10;99.90;;;;;;4940386;28;88970;-32
2022/03/16 04:25:47;;;;;;;61.75;27.67;;;3.10;99.90;;;;;;4939611;28;89491;-33
2022/03/16 04:28:13;;;;;;;59.05;28.45;;;3.00;99.90;;;;;;4940360;28;89407;-31
2022/03/16 04:30:39;;;;;;;54.95;28.80;;;3.00;99.90;;;;;;4940524;28;87993;-33
2022/03/16 04:33:04;;;;;;;89.63;33.38;;;2.90;99.90;;;;;;4940331;28;90097;-32
2022/03/16 04:35:30;;;;;;;77.60;31.10;;;2.80;99.90;;;;;;4940016;28;89514;-32
2022/03/16 04:37:55;;;;;;;90.97;33.92;;;2.80;99.90;;;;;;4938019;28;90807;-32
2022/03/16 04:40:21;;;;;;;82.35;30.88;;;2.80;99.90;;;;;;4939823;28;89862;-33
2022/03/16 04:42:47;;;;;;;67.22;31.52;;;2.80;99.90;;;;;;4940271;28;90209;-30
2022/03/16 04:45:13;;;;;;;85.53;30.70;;;2.80;99.90;;;;;;4939651;28;89221;-32
2022/03/16 04:47:38;;;;;;;99.03;34.55;;;2.70;99.90;;;;;;4939982;28;88499;-31
2022/03/16 04:50:05;;;;;;;33.97;27.77;;;2.70;99.90;;;;;;4939757;28;88826;-31
2022/03/16 04:52:31;;;;;;;67.75;31.27;;;2.70;99.90;;;;;;4940290;28;90380;-33
2022/03/16 04:54:57;;;;;;;59.03;29.95;;;2.70;99.90;;;;;;4938398;28;90218;-32
2022/03/16 04:57:22;;;;;;;59.88;33.72;;;2.70;99.90;;;;;;4939938;28;89208;-32
2022/03/16 04:59:48;;;;;;;111.72;34.67;;;2.70;99.90;;;;;;4939570;28;88935;-31
2022/03/16 05:02:13;;;;;;;100.45;35.45;;;2.70;99.90;;;;;;4939821;28;90246;-30
2022/03/16 05:04:39;;;;;;;73.38;30.65;;;2.70;99.90;;;;;;4938733;28;90667;-32
2022/03/16 05:07:04;;;;;;;68.38;32.45;;;2.70;99.90;;;;;;4939159;28;90406;-31
2022/03/16 05:09:30;;;;;;;38.28;27.33;;;2.70;99.90;;;;;;4940121;28;88514;-34
2022/03/16 05:11:55;;;;;;;42.97;27.23;;;2.70;99.90;;;;;;4939220;28;89935;-34
2022/03/16 05:14:21;;;;;;;29.40;26.15;;;2.70;99.90;;;;;;4938723;28;89643;-34
2022/03/16 05:16:47;;;;;;;46.30;28.27;;;2.60;99.90;;;;;;4939254;28;89519;-29
2022/03/16 05:19:12;;;;;;;35.70;26.35;;;2.60;99.90;;;;;;4939791;28;89694;-31
2022/03/16 05:21:38;;;;;;;29.15;26.00;;;2.60;99.90;;;;;;4939856;28;89998;-31
2022/03/16 05:24:04;;;;;;;54.25;28.58;;;2.60;99.90;;;;;;4939179;28;89486;-32
2022/03/16 05:26:30;;;;;;;28.02;24.80;;;2.60;99.90;;;;;;4939221;28;89922;-32
2022/03/16 05:28:56;;;;;;;35.38;26.08;;;2.50;99.90;;;;;;4939069;28;89724;-32
2022/03/16 05:31:22;;;;;;;46.35;26.02;;;2.50;99.90;;;;;;4938892;28;90285;-32
2022/03/16 05:33:49;;;;;;;32.45;24.02;;;2.50;99.90;;;;;;4939538;28;89826;-32
2022/03/16 05:36:15;;;;;;;29.60;26.00;;;2.50;99.90;;;;;;4937929;28;93041;-33
2022/03/16 05:38:41;;;;;;;31.92;25.40;;;2.50;99.90;;;;;;4939001;28;89912;-33
2022/03/16 05:41:07;;;;;;;79.10;32.92;;;2.40;99.90;;;;;;4939218;28;90863;-32
2022/03/16 05:43:32;;;;;;;49.25;29.95;;;2.40;99.90;;;;;;4939078;28;90024;-33
2022/03/16 05:45:58;;;;;;;52.47;30.80;;;2.40;99.90;;;;;;4939547;28;89467;-34
2022/03/16 05:48:23;;;;;;;43.00;32.10;;;2.50;99.90;;;;;;4939478;28;89376;-33
2022/03/16 05:50:49;;;;;;;56.33;36.00;;;2.50;99.90;;;;;;4938962;28;89867;-34
2022/03/16 05:53:14;;;;;;;51.00;36.65;;;2.60;99.90;;;;;;4939056;28;90726;-30
2022/03/16 05:55:41;;;;;;;81.20;38.78;;;2.60;99.90;;;;;;4938531;28;89619;-30
2022/03/16 05:58:07;;;;;;;63.17;36.63;;;2.70;99.90;;;;;;4939780;28;88496;-32
2022/03/16 06:00:34;;;;;;;68.47;34.65;;;2.70;99.90;;;;;;4939314;28;89091;-32
2022/03/16 06:03:00;;;;;;;77.15;33.35;;;2.80;99.90;;;;;;4938628;28;89807;-32
2022/03/16 06:05:26;;;;;;;96.68;34.33;;;2.80;99.90;;;;;;4939205;28;89536;-33
2022/03/16 06:07:51;;;;;;;99.05;33.47;;;2.80;99.90;;;;;;4941737;28;88246;-35
2022/03/16 06:10:18;;;;;;;39.80;29.48;;;2.70;99.90;;;;;;4942335;28;90200;-34
2022/03/16 06:13:01;;;;;;;80.47;32.25;;;2.70;99.90;;;;;;4942093;28;89459;-34
2022/03/16 06:15:31;;;;;;;54.97;29.95;;;2.60;99.90;;;;;;4942560;28;89043;-34
2022/03/16 06:17:58;;;;;;;82.85;34.13;;;2.60;99.90;;;;;;4941379;28;90046;-36
2022/03/16 06:20:25;;;;;;;92.67;34.40;;;2.60;99.90;;;;;;4942091;28;90155;-32
2022/03/16 06:22:51;;;;;;;54.88;31.40;;;2.60;99.90;;;;;;4942596;28;89258;-34
2022/03/16 06:25:17;;;;;;;56.63;33.35;;;2.60;99.90;;;;;;4941354;28;89972;-32
2022/03/16 06:27:42;;;;;;;36.28;29.38;;;2.70;99.90;;;;;;4942244;28;88243;-32
2022/03/16 06:30:10;;;;;;;70.30;33.67;;;2.70;99.90;;;;;;4942029;28;90733;-33
2022/03/16 06:32:36;;;;;;;38.97;34.10;;;2.70;99.90;;;;;;4941082;28;89267;-31
2022/03/16 06:35:06;;;;;;;35.53;31.20;;;2.70;99.90;;;;;;4942574;28;89306;-32
2022/03/16 06:37:32;;;;;;;41.03;33.15;;;2.80;99.90;;;;;;4941588;28;90028;-33
2022/03/16 06:39:58;;;;;;;41.38;34.95;;;2.80;99.90;;;;;;4940891;28;91791;-33
2022/03/16 06:42:24;;;;;;;47.03;35.70;;;2.90;99.90;;;;;;4941388;28;90752;-32
2022/03/16 06:44:49;;;;;;;48.50;37.42;;;3.00;99.90;;;;;;4941763;28;90502;-31
2022/03/16 06:47:15;;;;;;;45.60;36.88;;;3.00;99.90;;;;;;4940177;28;88537;-33
2022/03/16 06:49:40;;;;;;;57.05;39.22;;;3.00;99.90;;;;;;4941360;28;90062;-33
2022/03/16 06:52:06;;;;;;;48.90;38.67;;;3.10;99.90;;;;;;4941351;28;90562;-32
2022/03/16 06:54:32;;;;;;;45.75;38.03;;;3.20;99.90;;;;;;4941545;28;89609;-31
2022/03/16 06:56:57;;;;;;;51.80;39.47;;;3.20;99.90;;;;;;4940872;28;90073;-31
2022/03/16 06:59:23;;;;;;;43.38;37.65;;;3.30;99.90;;;;;;4941835;28;90175;-32
2022/03/16 07:01:49;;;;;;;49.92;41.03;;;3.40;99.90;;;;;;4941363;28;89864;-32
2022/03/16 07:04:14;;;;;;;43.70;38.97;;;3.40;99.90;;;;;;4941221;28;90334;-33
2022/03/16 07:06:40;;;;;;;50.83;38.60;;;3.50;99.90;;;;;;4940371;28;89801;-33
2022/03/16 07:09:05;;;;;;;44.10;38.90;;;3.60;99.90;;;;;;4941020;28;90147;-33
2022/03/16 07:11:31;;;;;;;52.55;42.30;;;3.60;99.90;;;;;;4941751;28;89475;-32
2022/03/16 07:16:41;;;;;;;47.92;39.92;;;3.70;99.90;;;;;;4941214;28;89880;-32
2022/03/16 07:19:07;;;;;;;47.38;37.95;;;3.80;99.90;;;;;;4940600;28;90190;-31
2022/03/16 07:21:33;;;;;;;46.47;39.45;;;3.80;99.90;;;;;;4940497;28;89519;-31
2022/03/16 07:23:58;;;;;;;51.38;38.20;;;3.70;99.90;;;;;;4941514;28;89453;-34
2022/03/16 07:26:24;;;;;;;47.35;39.63;;;3.70;99.90;;;;;;4940764;28;89141;-31
2022/03/16 07:28:50;;;;;;;46.78;40.30;;;3.80;99.90;;;;;;4940701;28;90449;-32
2022/03/16 07:31:16;;;;;;;50.15;41.20;;;3.80;99.90;;;;;;4940699;28;90812;-30
2022/03/16 07:33:42;;;;;;;49.42;43.70;;;3.90;99.90;;;;;;4939848;28;90255;-32
2022/03/16 07:36:07;;;;;;;53.75;42.38;;;3.90;99.90;;;;;;4941228;28;89199;-33
2022/03/16 07:38:33;;;;;;;53.42;42.05;;;3.90;99.90;;;;;;4940593;28;89727;-32
2022/03/16 07:40:59;;;;;;;49.92;42.63;;;4.00;99.90;;;;;;4940904;28;89816;-32
2022/03/16 07:43:25;;;;;;;53.70;43.45;;;4.10;99.90;;;;;;4940786;28;91162;-33
2022/03/16 07:45:50;;;;;;;51.55;44.90;;;4.30;99.90;;;;;;4940265;28;89545;-33
2022/03/16 07:48:16;;;;;;;51.10;41.88;;;4.40;99.90;;;;;;4940849;28;90171;-36
2022/03/16 07:50:41;;;;;;;51.33;42.20;;;4.60;99.90;;;;;;4939755;28;91183;-32
2022/03/16 07:53:07;;;;;;;49.55;44.10;;;4.70;99.90;;;;;;4941049;28;89684;-34
2022/03/16 07:55:33;;;;;;;51.13;44.10;;;4.90;99.90;;;;;;4939857;28;90211;-33
2022/03/16 07:57:59;;;;;;;50.15;44.15;;;5.10;99.90;;;;;;4939814;28;90258;-35
2022/03/16 08:00:25;;;;;;;52.90;46.63;;;5.30;99.90;;;;;;4940796;28;89317;-31
2022/03/16 08:02:53;;;;;;;58.95;49.28;;;5.40;99.90;;;;;;4940434;28;89990;-31
2022/03/16 08:05:21;;;;;;;57.28;47.88;;;5.50;99.90;;;;;;4938393;28;88744;-31
2022/03/16 08:07:47;;;;;;;58.03;47.17;;;5.60;99.90;;;;;;4938025;28;89969;-32
2022/03/16 08:10:13;;;;;;;54.83;46.22;;;5.70;99.90;;;;;;4938820;28;90630;-32
2022/03/16 08:12:38;;;;;;;58.28;43.58;;;5.80;99.90;;;;;;4948258;28;89587;-34
2022/03/16 08:15:07;;;;;;;56.28;50.13;;;5.90;99.90;;;;;;4958940;28;88440;-33
2022/03/16 08:17:33;;;;;;;59.22;48.55;;;6.00;99.90;;;;;;4943165;28;91096;-33
2022/03/16 08:19:59;;;;;;;51.08;43.10;;;6.10;99.90;;;;;;4936195;28;90296;-31
2022/03/16 08:22:35;;;;;;;56.15;47.38;;;6.30;99.90;;;;;;4946956;28;90528;-31
2022/03/16 08:25:07;;;;;;;61.03;48.35;;;6.40;99.90;;;;;;4938239;28;89699;-31
2022/03/16 08:27:33;;;;;;;57.78;47.70;;;6.50;99.90;;;;;;4955800;28;90108;-33
2022/03/16 08:29:59;;;;;;;63.10;46.65;;;6.70;99.90;;;;;;4956924;28;89217;-32
2022/03/16 08:32:25;;;;;;;55.58;45.97;;;6.80;99.90;;;;;;4945729;28;89615;-32
2022/03/16 08:34:51;;;;;;;61.13;49.25;;;7.10;99.90;;;;;;4937924;28;88256;-31
2022/03/16 08:37:18;;;;;;;56.65;47.53;;;7.20;99.90;;;;;;4937158;28;90215;-32
2022/03/16 08:39:45;;;;;;;61.08;49.10;;;7.40;99.90;;;;;;4937428;28;89460;-33
2022/03/16 08:42:11;;;;;;;65.78;50.67;;;7.70;99.90;;;;;;4937578;28;89908;-31
2022/03/16 08:44:38;;;;;;;66.78;52.25;;;8.00;99.90;;;;;;4937035;28;89326;-34
2022/03/16 08:47:03;;;;;;;60.70;52.08;;;8.20;99.90;;;;;;4937176;28;90359;-35
2022/03/16 08:49:29;;;;;;;60.97;47.47;;;8.50;99.90;;;;;;4937840;28;88374;-32
2022/03/16 08:51:57;;;;;;;58.72;46.40;;;8.80;99.90;;;;;;4935661;28;89736;-33
2022/03/16 08:54:23;;;;;;;54.95;40.13;;;9.00;99.90;;;;;;4938456;28;89721;-30
2022/03/16 08:56:49;;;;;;;49.38;41.78;;;9.20;99.90;;;;;;4937809;28;90756;-31
2022/03/16 08:59:15;;;;;;;50.92;41.80;;;9.40;99.90;;;;;;4936893;28;89597;-32
2022/03/16 09:01:40;;;;;;;50.60;38.28;;;9.50;99.90;;;;;;4937409;28;88538;-32
2022/03/16 09:04:06;;;;;;;50.10;41.28;;;9.50;99.90;;;;;;4937425;28;87467;-35
2022/03/16 09:06:32;;;;;;;46.20;37.90;;;9.70;99.90;;;;;;4937106;28;90441;-33
2022/03/16 09:08:57;;;;;;;49.78;37.53;;;9.80;99.90;;;;;;4936238;28;90083;-33
2022/03/16 09:11:23;;;;;;;48.72;37.97;;;10.00;99.90;;;;;;4937037;28;90471;-31
2022/03/16 09:13:49;;;;;;;44.13;38.95;;;10.10;99.90;;;;;;4936102;28;89033;-31
2022/03/16 09:16:14;;;;;;;42.88;31.00;;;10.30;99.90;;;;;;4936959;28;90182;-31
2022/03/16 09:18:40;;;;;;;41.20;35.58;;;10.50;99.90;;;;;;4937154;28;88282;-33
2022/03/16 09:21:06;;;;;;;44.55;31.67;;;10.60;99.90;;;;;;4939274;28;89409;-33
2022/03/16 09:23:32;;;;;;;38.47;34.40;;;10.80;99.90;;;;;;4938824;28;89983;-31
2022/03/16 09:25:59;;;;;;;35.08;29.30;;;10.80;99.90;;;;;;4939521;28;90122;-33
2022/03/16 09:28:25;;;;;;;38.42;30.73;;;10.90;99.90;;;;;;4939362;28;89876;-33
2022/03/16 09:30:51;;;;;;;36.60;30.45;;;10.90;99.90;;;;;;4939618;28;89642;-31
2022/03/16 09:33:17;;;;;;;30.30;26.48;;;11.00;99.90;;;;;;4938787;28;89938;-34
2022/03/16 09:35:44;;;;;;;32.55;26.67;;;11.00;99.90;;;;;;4938917;28;90207;-32
2022/03/16 09:38:10;;;;;;;40.05;30.15;;;11.20;99.90;;;;;;4937877;28;91341;-31
2022/03/16 09:40:36;;;;;;;34.28;27.15;;;11.30;99.90;;;;;;4939522;28;90208;-34
2022/03/16 09:43:07;;;;;;;34.08;24.27;;;11.40;99.90;;;;;;4942276;28;88216;-35
2022/03/16 09:45:43;;;;;;;26.77;20.13;;;11.60;99.90;;;;;;4942540;28;90203;-34
2022/03/16 09:48:08;;;;;;;24.77;20.58;;;11.80;99.90;;;;;;4943017;28;89436;-36
2022/03/16 09:50:34;;;;;;;26.25;18.55;;;11.90;99.90;;;;;;4942578;28;89722;-38
2022/03/16 09:53:00;;;;;;;27.25;19.58;;;12.00;99.90;;;;;;4942716;28;88478;-35
2022/03/16 09:55:26;;;;;;;24.08;18.98;;;12.00;99.90;;;;;;4942446;28;90318;-35
2022/03/16 09:57:51;;;;;;;23.73;13.85;;;12.20;99.90;;;;;;4941188;28;90429;-33
2022/03/16 10:00:18;;;;;;;24.92;16.83;;;12.30;99.90;;;;;;4942436;28;90381;-33
2022/03/16 10:02:44;;;;;;;18.95;15.35;;;12.40;99.90;;;;;;4942020;28;88029;-33
2022/03/16 10:05:10;;;;;;;17.50;15.63;;;12.40;99.90;;;;;;4939911;28;90170;-34
2022/03/16 10:07:37;;;;;;;17.92;15.40;;;12.40;99.90;;;;;;4940257;28;90475;-33
2022/03/16 10:15:36;;;;;;;22.85;18.27;;;12.60;99.90;;;;;;4959641;28;89695;-36
2022/03/16 10:18:03;;;;;;;26.77;18.50;;;12.70;99.90;;;;;;4959847;28;89753;-32
2022/03/16 10:20:37;;;;;;;20.20;17.63;;;12.80;99.90;;;;;;4959278;28;89958;-34
2022/03/16 10:23:09;;;;;;;25.67;18.75;;;12.90;99.90;;;;;;4959330;28;89022;-35
2022/03/16 10:25:51;;;;;;;24.33;18.48;;;13.20;99.90;;;;;;4959239;28;90302;-37
2022/03/16 10:28:38;;;;;;;24.35;18.08;;;13.40;99.90;;;;;;4946303;28;90832;-32
2022/03/16 10:31:07;;;;;;;21.65;18.60;;;13.60;99.90;;;;;;4939430;28;89082;-36
2022/03/16 10:33:50;;;;;;;24.60;18.50;;;13.50;99.90;;;;;;4939410;28;88904;-33
2022/03/16 10:36:19;;;;;;;24.35;19.10;;;13.40;99.90;;;;;;4940060;28;88923;-34
2022/03/16 10:38:53;;;;;;;24.83;19.33;;;13.20;99.90;;;;;;4939714;28;90112;-32
2022/03/16 10:47:09;;;;;;;24.95;19.67;;;13.40;99.90;;;;;;4939611;28;89835;-32
2022/03/16 10:49:34;;;;;;;22.50;18.73;;;13.40;99.90;;;;;;4938647;28;90663;-37
2022/03/16 10:52:05;;;;;;;25.48;18.08;;;13.40;99.90;;;;;;4939251;28;90489;-35
2022/03/16 10:54:32;;;;;;;26.65;18.98;;;13.30;99.90;;;;;;4938723;28;88785;-35
2022/03/16 10:57:02;;;;;;;24.63;17.85;;;13.20;99.90;;;;;;4937960;28;90510;-33
2022/03/16 10:59:30;;;;;;;22.02;17.25;;;13.20;99.90;;;;;;4939659;28;88892;-33
2022/03/16 11:02:03;;;;;;;23.08;19.13;;;13.30;99.90;;;;;;4938975;28;89693;-33
2022/03/16 11:04:30;;;;;;;27.83;18.05;;;13.50;99.90;;;;;;4939902;28;87396;-35
2022/03/16 11:06:58;;;;;;;23.58;19.73;;;13.50;99.90;;;;;;4939517;28;90373;-34
2022/03/16 11:09:24;;;;;;;25.80;19.70;;;13.50;99.90;;;;;;4937429;28;90654;-33
2022/03/16 11:14:36;;;;;;;24.25;19.08;;;14.30;98.20;;;;;;4938961;28;89407;-32
2022/03/16 11:17:03;;;;;;;25.85;18.83;;;14.20;99.90;;;;;;4939598;28;90058;-33
2022/03/16 11:19:30;;;;;;;22.15;15.35;;;14.20;99.90;;;;;;4938480;28;90118;-33
2022/03/16 11:22:07;;;;;;;19.08;14.32;;;14.20;91.00;;;;;;4939283;28;89555;-34
2022/03/16 11:24:39;;;;;;;18.13;15.53;;;14.20;85.00;;;;;;4939548;28;88646;-33
2022/03/16 11:27:24;;;;;;;18.15;13.10;;;14.10;93.10;;;;;;4938944;28;89908;-33
2022/03/16 11:30:33;;;;;;;23.48;16.67;;;14.00;82.20;;;;;;4938788;28;89660;-35
2022/03/16 11:33:05;;;;;;;18.65;14.52;;;14.00;87.20;;;;;;4939325;28;88210;-32
2022/03/16 11:35:36;;;;;;;21.08;15.55;;;14.10;79.10;;;;;;4939496;28;88342;-31
2022/03/16 11:38:09;;;;;;;22.30;15.82;;;14.10;86.60;;;;;;4938925;28;90006;-34
2022/03/16 11:40:38;;;;;;;21.40;15.52;;;14.20;90.90;;;;;;4937747;28;90451;-37
2022/03/16 11:43:04;;;;;;;23.05;15.25;;;14.40;92.40;;;;;;4938042;28;90496;-33
2022/03/16 11:45:43;;;;;;;22.15;16.65;;;14.50;83.70;;;;;;4938817;28;89641;-36
2022/03/16 11:48:33;;;;;;;20.25;15.65;;;14.60;80.30;;;;;;4938270;28;89596;-35
2022/03/16 11:51:13;;;;;;;28.75;17.35;;;14.60;81.10;;;;;;4938110;28;89509;-35
2022/03/16 11:53:58;;;;;;;22.35;14.57;;;14.60;81.10;;;;;;4937819;28;90091;-35
2022/03/16 11:56:45;;;;;;;22.60;16.17;;;14.60;87.40;;;;;;4938901;28;87907;-33
2022/03/16 11:59:16;;;;;;;24.53;17.37;;;14.70;82.00;;;;;;4938834;28;90360;-35
2022/03/16 12:01:48;;;;;;;25.00;16.95;;;14.70;90.40;;;;;;4938140;28;89739;-37
2022/03/16 12:04:16;;;;;;;22.33;16.58;;;14.80;78.60;;;;;;4937534;28;89970;-32
2022/03/16 12:07:05;;;;;;;27.98;18.63;;;14.70;75.30;;;;;;4937492;28;89174;-33
2022/03/16 12:09:33;;;;;;;26.88;17.65;;;14.70;78.70;;;;;;4938008;28;91738;-34
2022/03/16 12:14:27;;;;;;;24.33;17.88;;;14.70;84.30;;;;;;4936354;28;89077;-33
2022/03/16 12:17:13;;;;;;;23.83;18.15;;;14.80;89.40;;;;;;4937972;28;89830;-32
2022/03/16 12:19:39;;;;;;;26.60;18.67;;;14.90;79.40;;;;;;4937087;28;89902;-37
2022/03/16 12:22:08;;;;;;;22.05;19.33;;;14.80;79.80;;;;;;4938672;28;90260;-34
2022/03/16 12:30:06;;;;;;;25.15;18.60;;;14.80;74.60;;;;;;4938174;28;89319;-36
2022/03/16 12:32:36;;;;;;;23.05;17.60;;;14.70;77.50;;;;;;4938264;28;90583;-34
2022/03/16 12:35:06;;;;;;;24.65;19.73;;;14.70;79.40;;;;;;4938432;28;90940;-35
2022/03/16 12:37:32;;;;;;;27.20;19.05;;;14.70;81.90;;;;;;4938232;28;88240;-35
2022/03/16 12:39:58;;;;;;;26.70;20.20;;;14.70;83.10;;;;;;4937451;28;91215;-36
2022/03/16 12:42:33;;;;;;;22.40;17.60;;;14.70;84.80;;;;;;4937608;28;90303;-32
2022/03/16 12:45:12;;;;;;;24.15;19.02;;;14.80;79.90;;;;;;4938330;28;88792;-35
2022/03/16 12:47:43;;;;;;;26.52;17.60;;;14.80;84.10;;;;;;4938566;28;88865;-35
2022/03/16 12:50:13;;;;;;;25.83;19.27;;;15.00;74.50;;;;;;4937826;28;89483;-36
2022/03/16 12:52:40;;;;;;;23.70;16.95;;;14.90;79.10;;;;;;4937752;28;90207;-35
2022/03/16 12:55:18;;;;;;;23.70;16.88;;;15.10;77.10;;;;;;4937561;28;89454;-33
2022/03/16 12:58:10;;;;;;;27.20;20.05;;;15.00;77.40;;;;;;4937103;28;88551;-33